sensor_id;sensor_type;location;lat;lon;timestamp;pressure;altitude;pressure_sealevel;temperature;humidity
30682;BME280;17439;48.092;11.842;2024-03-29T00:01:49;94198.94;;;5.95;74.05
30682;BME280;17439;48.092;11.842;2024-03-29T00:04:15;94206.13;;;6.00;74.28
30682;BME280;17439;48.092;11.842;2024-03-29T00:06:41;94213.56;;;6.03;74.37
30682;BME280;17439;48.092;11.842;2024-03-29T00:09:06;94211.03;;;6.07;74.34
30682;BME280;17439;48.092;11.842;2024-03-29T00:11:32;94208.50;;;6.10;74.59
30682;BME280;17439;48.092;11.842;2024-03-29T00:13:57;94206.78;;;6.14;74.69
30682;BME280;17439;48.092;11.842;2024-03-29T00:16:23;94203.47;;;6.17;74.75
30682;BME280;17439;48.092;11.842;2024-03-29T00:18:49;94193.97;;;6.20;74.66
30682;BME280;17439;48.092;11.842;2024-03-29T00:21:15;94211.09;;;6.24;74.73
30682;BME280;17439;48.092;11.842;2024-03-29T00:23:40;94204.28;;;6.27;74.71
30682;BME280;17439;48.092;11.842;2024-03-29T00:26:06;94199.38;;;6.29;74.32
30682;BME280;17439;48.092;11.842;2024-03-29T00:28:32;94199.38;;;6.29;74.08
30682;BME280;17439;48.092;11.842;2024-03-29T00:30:57;94189.88;;;6.31;74.24
30682;BME280;17439;48.092;11.842;2024-03-29T00:33:23;94189.88;;;6.31;73.58
30682;BME280;17439;48.092;11.842;2024-03-29T00:35:49;94189.09;;;6.31;73.33
30682;BME280;17439;48.092;11.842;2024-03-29T00:38:15;94164.38;;;6.29;73.13
30682;BME280;17439;48.092;11.842;2024-03-29T00:40:40;94169.78;;;6.29;73.17
30682;BME280;17439;48.092;11.842;2024-03-29T00:43:06;94178.16;;;6.27;73.32
30682;BME280;17439;48.092;11.842;2024-03-29T00:45:32;94175.78;;;6.26;72.96
30682;BME280;17439;48.092;11.842;2024-03-29T00:47:57;94173.41;;;6.24;72.67
30682;BME280;17439;48.092;11.842;2024-03-29T00:50:23;94167.88;;;6.21;72.37
30682;BME280;17439;48.092;11.842;2024-03-29T00:52:48;94168.19;;;6.19;72.26
30682;BME280;17439;48.092;11.842;2024-03-29T00:55:14;94159.13;;;6.15;71.99
30682;BME280;17439;48.092;11.842;2024-03-29T00:57:40;94157.84;;;6.12;71.82
30682;BME280;17439;48.092;11.842;2024-03-29T01:00:06;94164.66;;;6.10;71.95
30682;BME280;17439;48.092;11.842;2024-03-29T01:02:32;94157.53;;;6.05;72.01
30682;BME280;17439;48.092;11.842;2024-03-29T01:04:57;94159.25;;;6.01;71.90
30682;BME280;17439;48.092;11.842;2024-03-29T01:07:23;94144.34;;;5.95;71.60
30682;BME280;17439;48.092;11.842;2024-03-29T01:09:49;94150.38;;;5.92;71.96
30682;BME280;17439;48.092;11.842;2024-03-29T01:12:14;94152.09;;;5.88;71.81
30682;BME280;17439;48.092;11.842;2024-03-29T01:14:40;94147.78;;;5.87;72.16
30682;BME280;17439;48.092;11.842;2024-03-29T01:17:05;94133.41;;;5.82;72.40
30682;BME280;17439;48.092;11.842;2024-03-29T01:19:31;94127.53;;;5.80;72.27
30682;BME280;17439;48.092;11.842;2024-03-29T01:21:57;94127.38;;;5.77;72.23
30682;BME280;17439;48.092;11.842;2024-03-29T01:24:22;94128.00;;;5.74;72.34
30682;BME280;17439;48.092;11.842;2024-03-29T01:26:48;94113.28;;;5.71;72.15
30682;BME280;17439;48.092;11.842;2024-03-29T01:29:14;94101.25;;;5.69;72.00
30682;BME280;17439;48.092;11.842;2024-03-29T01:31:39;94103.47;;;5.67;72.26
30682;BME280;17439;48.092;11.842;2024-03-29T01:34:05;94092.22;;;5.64;72.44
30682;BME280;17439;48.092;11.842;2024-03-29T01:36:30;94093.03;;;5.65;72.48
30682;BME280;17439;48.092;11.842;2024-03-29T01:38:56;94081.75;;;5.63;72.64
30682;BME280;17439;48.092;11.842;2024-03-29T01:41:23;94063.25;;;5.61;72.36
30682;BME280;17439;48.092;11.842;2024-03-29T01:43:49;94057.09;;;5.61;72.41
30682;BME280;17439;48.092;11.842;2024-03-29T01:46:16;94051.25;;;5.59;72.34
30682;BME280;17439;48.092;11.842;2024-03-29T01:48:44;94044.59;;;5.56;72.66
30682;BME280;17439;48.092;11.842;2024-03-29T01:51:11;94050.78;;;5.57;72.21
30682;BME280;17439;48.092;11.842;2024-03-29T01:53:38;94046.81;;;5.54;72.69
30682;BME280;17439;48.092;11.842;2024-03-29T01:56:04;94051.72;;;5.52;72.55
30682;BME280;17439;48.092;11.842;2024-03-29T01:58:31;94064.34;;;5.52;72.79
30682;BME280;17439;48.092;11.842;2024-03-29T02:01:00;94059.59;;;5.49;71.03
30682;BME280;17439;48.092;11.842;2024-03-29T02:03:27;94064.19;;;5.48;72.55
30682;BME280;17439;48.092;11.842;2024-03-29T02:05:53;94068.47;;;5.49;72.80
30682;BME280;17439;48.092;11.842;2024-03-29T02:08:19;94063.41;;;5.48;72.75
30682;BME280;17439;48.092;11.842;2024-03-29T02:10:48;94069.09;;;5.46;71.65
30682;BME280;17439;48.092;11.842;2024-03-29T02:13:14;94072.56;;;5.47;73.08
30682;BME280;17439;48.092;11.842;2024-03-29T02:15:40;94082.53;;;5.46;72.95
30682;BME280;17439;48.092;11.842;2024-03-29T02:18:07;94069.88;;;5.47;73.14
30682;BME280;17439;48.092;11.842;2024-03-29T02:20:33;94056.75;;;5.45;73.06
30682;BME280;17439;48.092;11.842;2024-03-29T02:23:19;94054.38;;;5.43;70.38
30682;BME280;17439;48.092;11.842;2024-03-29T02:25:45;94048.19;;;5.43;72.99
30682;BME280;17439;48.092;11.842;2024-03-29T02:28:12;94052.78;;;5.42;72.94
30682;BME280;17439;48.092;11.842;2024-03-29T02:30:38;94051.19;;;5.41;72.99
30682;BME280;17439;48.092;11.842;2024-03-29T02:33:04;94054.97;;;5.40;72.86
30682;BME280;17439;48.092;11.842;2024-03-29T02:35:30;94052.28;;;5.40;72.99
30682;BME280;17439;48.092;11.842;2024-03-29T02:37:55;94053.09;;;5.41;73.05
30682;BME280;17439;48.092;11.842;2024-03-29T02:40:21;94048.50;;;5.41;73.39
30682;BME280;17439;48.092;11.842;2024-03-29T02:42:48;94047.72;;;5.41;73.14
30682;BME280;17439;48.092;11.842;2024-03-29T02:45:17;94058.94;;;5.43;73.65
30682;BME280;17439;48.092;11.842;2024-03-29T02:47:43;94049.78;;;5.44;73.93
30682;BME280;17439;48.092;11.842;2024-03-29T02:50:10;94040.31;;;5.47;74.00
30682;BME280;17439;48.092;11.842;2024-03-29T02:52:36;94035.41;;;5.49;74.45
30682;BME280;17439;48.092;11.842;2024-03-29T02:55:02;94048.22;;;5.52;74.67
30682;BME280;17439;48.092;11.842;2024-03-29T02:57:28;94036.84;;;5.55;74.91
30682;BME280;17439;48.092;11.842;2024-03-29T02:59:53;94040.03;;;5.57;74.98
30682;BME280;17439;48.092;11.842;2024-03-29T03:02:19;94042.09;;;5.60;74.58
30682;BME280;17439;48.092;11.842;2024-03-29T03:04:45;94037.66;;;5.64;74.61
30682;BME280;17439;48.092;11.842;2024-03-29T03:07:10;94035.44;;;5.66;74.67
30682;BME280;17439;48.092;11.842;2024-03-29T03:09:37;94038.63;;;5.68;74.19
30682;BME280;17439;48.092;11.842;2024-03-29T03:12:03;94039.09;;;5.70;74.30
30682;BME280;17439;48.092;11.842;2024-03-29T03:14:29;94028.34;;;5.70;74.04
30682;BME280;17439;48.092;11.842;2024-03-29T03:16:54;94021.84;;;5.71;73.98
30682;BME280;17439;48.092;11.842;2024-03-29T03:19:20;94022.63;;;5.72;73.82
30682;BME280;17439;48.092;11.842;2024-03-29T03:21:46;94014.88;;;5.70;73.54
30682;BME280;17439;48.092;11.842;2024-03-29T03:24:11;94019.16;;;5.71;73.15
30682;BME280;17439;48.092;11.842;2024-03-29T03:26:37;94012.50;;;5.69;73.39
30682;BME280;17439;48.092;11.842;2024-03-29T03:29:03;94002.53;;;5.69;73.21
30682;BME280;17439;48.092;11.842;2024-03-29T03:31:28;94000.16;;;5.68;73.03
30682;BME280;17439;48.092;11.842;2024-03-29T03:33:54;94011.53;;;5.64;72.82
30682;BME280;17439;48.092;11.842;2024-03-29T03:36:19;94009.97;;;5.63;72.63
30682;BME280;17439;48.092;11.842;2024-03-29T03:38:45;94014.53;;;5.63;72.75
30682;BME280;17439;48.092;11.842;2024-03-29T03:41:11;94012.50;;;5.60;72.70
30682;BME280;17439;48.092;11.842;2024-03-29T03:43:36;94009.31;;;5.58;72.69
30682;BME280;17439;48.092;11.842;2024-03-29T03:46:02;94008.06;;;5.55;72.73
30682;BME280;17439;48.092;11.842;2024-03-29T03:48:28;94005.69;;;5.54;72.71
30682;BME280;17439;48.092;11.842;2024-03-29T03:50:53;94000.31;;;5.54;72.90
30682;BME280;17439;48.092;11.842;2024-03-29T03:53:19;93999.50;;;5.53;73.12
30682;BME280;17439;48.092;11.842;2024-03-29T03:55:45;93987.97;;;5.53;72.95
30682;BME280;17439;48.092;11.842;2024-03-29T03:58:10;93999.03;;;5.51;72.70
30682;BME280;17439;48.092;11.842;2024-03-29T04:00:37;94003.63;;;5.51;72.70
30682;BME280;17439;48.092;11.842;2024-03-29T04:03:03;94002.81;;;5.50;73.21
30682;BME280;17439;48.092;11.842;2024-03-29T04:05:28;93987.81;;;5.49;73.14
30682;BME280;17439;48.092;11.842;2024-03-29T04:07:54;93993.97;;;5.50;73.36
30682;BME280;17439;48.092;11.842;2024-03-29T04:10:19;93992.06;;;5.50;73.70
30682;BME280;17439;48.092;11.842;2024-03-29T04:12:45;93988.59;;;5.50;73.48
30682;BME280;17439;48.092;11.842;2024-03-29T04:15:11;93989.06;;;5.52;74.17
30682;BME280;17439;48.092;11.842;2024-03-29T04:17:36;93994.94;;;5.54;74.06
30682;BME280;17439;48.092;11.842;2024-03-29T04:20:02;93997.31;;;5.55;73.97
30682;BME280;17439;48.092;11.842;2024-03-29T04:22:28;94000.78;;;5.56;73.70
30682;BME280;17439;48.092;11.842;2024-03-29T04:24:53;94011.22;;;5.57;73.50
30682;BME280;17439;48.092;11.842;2024-03-29T04:27:19;94008.22;;;5.59;73.53
30682;BME280;17439;48.092;11.842;2024-03-29T04:29:45;94009.81;;;5.60;73.51
30682;BME280;17439;48.092;11.842;2024-03-29T04:32:10;93991.00;;;5.60;73.19
30682;BME280;17439;48.092;11.842;2024-03-29T04:34:36;93983.25;;;5.58;72.98
30682;BME280;17439;48.092;11.842;2024-03-29T04:37:02;93973.59;;;5.57;73.22
30682;BME280;17439;48.092;11.842;2024-03-29T04:39:27;93960.16;;;5.57;73.32
30682;BME280;17439;48.092;11.842;2024-03-29T04:41:53;93956.69;;;5.57;73.13
30682;BME280;17439;48.092;11.842;2024-03-29T04:44:28;93948.94;;;5.55;70.42
30682;BME280;17439;48.092;11.842;2024-03-29T04:46:54;93947.03;;;5.56;72.93
30682;BME280;17439;48.092;11.842;2024-03-29T04:49:22;93941.19;;;5.54;72.47
30682;BME280;17439;48.092;11.842;2024-03-29T04:51:50;93943.06;;;5.53;71.89
30682;BME280;17439;48.092;11.842;2024-03-29T04:54:17;93939.25;;;5.45;69.52
30682;BME280;17439;48.092;11.842;2024-03-29T04:56:42;93938.31;;;5.50;73.41
30682;BME280;17439;48.092;11.842;2024-03-29T04:59:08;93942.59;;;5.51;73.43
30682;BME280;17439;48.092;11.842;2024-03-29T05:01:34;93946.06;;;5.52;73.60
30682;BME280;17439;48.092;11.842;2024-03-29T05:04:00;93959.19;;;5.53;74.28
30682;BME280;17439;48.092;11.842;2024-03-29T05:06:25;93960.47;;;5.56;74.51
30682;BME280;17439;48.092;11.842;2024-03-29T05:08:51;93970.13;;;5.57;75.13
30682;BME280;17439;48.092;11.842;2024-03-29T05:11:16;93967.28;;;5.62;75.37
30682;BME280;17439;48.092;11.842;2024-03-29T05:13:42;93963.16;;;5.64;75.52
30682;BME280;17439;48.092;11.842;2024-03-29T05:16:08;93952.56;;;5.68;75.48
30682;BME280;17439;48.092;11.842;2024-03-29T05:18:33;93957.47;;;5.75;76.16
30682;BME280;17439;48.092;11.842;2024-03-29T05:20:59;93954.31;;;5.81;76.09
30682;BME280;17439;48.092;11.842;2024-03-29T05:23:24;93957.31;;;5.89;76.61
30682;BME280;17439;48.092;11.842;2024-03-29T05:25:50;93962.53;;;5.94;76.53
30682;BME280;17439;48.092;11.842;2024-03-29T05:28:16;93972.06;;;6.00;76.42
30682;BME280;17439;48.092;11.842;2024-03-29T05:30:43;93980.44;;;6.07;75.54
30682;BME280;17439;48.092;11.842;2024-03-29T05:33:08;93967.28;;;6.14;76.68
30682;BME280;17439;48.092;11.842;2024-03-29T05:35:34;93969.50;;;6.21;76.76
30682;BME280;17439;48.092;11.842;2024-03-29T05:38:00;93956.69;;;6.27;76.22
30682;BME280;17439;48.092;11.842;2024-03-29T05:40:25;93958.06;;;6.33;76.44
30682;BME280;17439;48.092;11.842;2024-03-29T05:42:51;93955.69;;;6.40;76.57
30682;BME280;17439;48.092;11.842;2024-03-29T05:45:29;93950.44;;;6.44;71.51
30682;BME280;17439;48.092;11.842;2024-03-29T05:47:57;93937.63;;;6.49;75.51
30682;BME280;17439;48.092;11.842;2024-03-29T05:50:23;93923.97;;;6.54;76.02
30682;BME280;17439;48.092;11.842;2024-03-29T05:52:53;93902.25;;;6.60;76.02
30682;BME280;17439;48.092;11.842;2024-03-29T05:55:19;93915.53;;;6.65;76.15
30682;BME280;17439;48.092;11.842;2024-03-29T05:57:45;93906.81;;;6.68;76.14
30682;BME280;17439;48.092;11.842;2024-03-29T06:00:12;93909.03;;;6.75;76.08
30682;BME280;17439;48.092;11.842;2024-03-29T06:02:38;93908.06;;;6.79;76.92
30682;BME280;17439;48.092;11.842;2024-03-29T06:05:04;93916.72;;;6.85;76.68
30682;BME280;17439;48.092;11.842;2024-03-29T06:07:30;93915.44;;;6.91;76.75
30682;BME280;17439;48.092;11.842;2024-03-29T06:09:56;93912.53;;;6.96;76.91
30682;BME280;17439;48.092;11.842;2024-03-29T06:12:22;93922.81;;;7.03;77.27
30682;BME280;17439;48.092;11.842;2024-03-29T06:14:47;93918.03;;;7.08;76.66
30682;BME280;17439;48.092;11.842;2024-03-29T06:17:13;93910.88;;;7.13;76.10
30682;BME280;17439;48.092;11.842;2024-03-29T06:19:39;93911.78;;;7.17;76.03
30682;BME280;17439;48.092;11.842;2024-03-29T06:22:04;93911.94;;;7.20;75.76
30682;BME280;17439;48.092;11.842;2024-03-29T06:24:30;93916.66;;;7.23;75.49
30682;BME280;17439;48.092;11.842;2024-03-29T06:26:55;93913.66;;;7.25;75.55
30682;BME280;17439;48.092;11.842;2024-03-29T06:29:21;93923.31;;;7.26;75.59
30682;BME280;17439;48.092;11.842;2024-03-29T06:31:46;93921.22;;;7.32;76.21
30682;BME280;17439;48.092;11.842;2024-03-29T06:34:12;93944.81;;;7.35;76.01
30682;BME280;17439;48.092;11.842;2024-03-29T06:36:38;93945.09;;;7.42;76.81
30682;BME280;17439;48.092;11.842;2024-03-29T06:39:03;93935.72;;;7.48;77.45
30682;BME280;17439;48.092;11.842;2024-03-29T06:41:29;93951.03;;;7.56;77.37
30682;BME280;17439;48.092;11.842;2024-03-29T06:43:54;93941.63;;;7.62;77.70
30682;BME280;17439;48.092;11.842;2024-03-29T06:46:20;93946.19;;;7.71;77.34
30682;BME280;17439;48.092;11.842;2024-03-29T06:48:46;93957.56;;;7.76;76.70
30682;BME280;17439;48.092;11.842;2024-03-29T06:51:11;93944.00;;;7.85;77.37
30682;BME280;17439;48.092;11.842;2024-03-29T06:53:37;93933.81;;;7.91;77.18
30682;BME280;17439;48.092;11.842;2024-03-29T06:56:03;93938.66;;;7.97;77.06
30682;BME280;17439;48.092;11.842;2024-03-29T06:58:28;93935.75;;;8.03;77.10
30682;BME280;17439;48.092;11.842;2024-03-29T07:00:54;93924.41;;;8.09;76.82
30682;BME280;17439;48.092;11.842;2024-03-29T07:03:19;93923.09;;;8.15;77.67
30682;BME280;17439;48.092;11.842;2024-03-29T07:05:46;93923.34;;;8.23;78.10
30682;BME280;17439;48.092;11.842;2024-03-29T07:08:12;93929.81;;;8.30;77.56
30682;BME280;17439;48.092;11.842;2024-03-29T07:10:37;93925.41;;;8.38;77.34
30682;BME280;17439;48.092;11.842;2024-03-29T07:13:03;93934.13;;;8.44;76.99
30682;BME280;17439;48.092;11.842;2024-03-29T07:15:29;93931.66;;;8.51;77.49
30682;BME280;17439;48.092;11.842;2024-03-29T07:17:54;93923.03;;;8.58;77.36
30682;BME280;17439;48.092;11.842;2024-03-29T07:20:20;93916.28;;;8.64;77.08
30682;BME280;17439;48.092;11.842;2024-03-29T07:22:45;93922.69;;;8.71;77.39
30682;BME280;17439;48.092;11.842;2024-03-29T07:25:11;93924.53;;;8.80;77.52
30682;BME280;17439;48.092;11.842;2024-03-29T07:27:37;93920.44;;;8.86;77.64
30682;BME280;17439;48.092;11.842;2024-03-29T07:30:03;93914.19;;;8.94;77.20
30682;BME280;17439;48.092;11.842;2024-03-29T07:32:29;93903.56;;;9.01;77.82
30682;BME280;17439;48.092;11.842;2024-03-29T07:34:55;93916.53;;;9.08;77.57
30682;BME280;17439;48.092;11.842;2024-03-29T07:37:20;93921.81;;;9.17;77.89
30682;BME280;17439;48.092;11.842;2024-03-29T07:39:46;93929.03;;;9.25;77.87
30682;BME280;17439;48.092;11.842;2024-03-29T07:42:12;93937.72;;;9.31;77.40
30682;BME280;17439;48.092;11.842;2024-03-29T07:44:38;93931.06;;;9.40;77.96
30682;BME280;17439;48.092;11.842;2024-03-29T07:47:03;93934.44;;;9.50;78.16
30682;BME280;17439;48.092;11.842;2024-03-29T07:49:29;93926.16;;;9.58;78.11
30682;BME280;17439;48.092;11.842;2024-03-29T07:51:55;93926.41;;;9.66;78.15
30682;BME280;17439;48.092;11.842;2024-03-29T07:54:20;93937.06;;;9.74;78.07
30682;BME280;17439;48.092;11.842;2024-03-29T07:56:46;93955.91;;;9.83;78.12
30682;BME280;17439;48.092;11.842;2024-03-29T07:59:12;93958.13;;;9.93;78.17
30682;BME280;17439;48.092;11.842;2024-03-29T08:01:37;93956.84;;;10.03;78.26
30682;BME280;17439;48.092;11.842;2024-03-29T08:04:03;93962.22;;;10.15;78.85
30682;BME280;17439;48.092;11.842;2024-03-29T08:06:29;93956.66;;;10.24;78.88
30682;BME280;17439;48.092;11.842;2024-03-29T08:08:55;93956.19;;;10.34;77.81
30682;BME280;17439;48.092;11.842;2024-03-29T08:11:20;93962.69;;;10.46;78.09
30682;BME280;17439;48.092;11.842;2024-03-29T08:13:46;93958.34;;;10.57;78.78
30682;BME280;17439;48.092;11.842;2024-03-29T08:16:12;93956.25;;;10.66;78.41
30682;BME280;17439;48.092;11.842;2024-03-29T08:18:37;93955.41;;;10.78;78.45
30682;BME280;17439;48.092;11.842;2024-03-29T08:21:03;93951.03;;;10.89;78.67
30682;BME280;17439;48.092;11.842;2024-03-29T08:23:29;93947.47;;;11.01;77.58
30682;BME280;17439;48.092;11.842;2024-03-29T08:25:55;93950.44;;;11.12;78.04
30682;BME280;17439;48.092;11.842;2024-03-29T08:28:21;93944.91;;;11.24;78.26
30682;BME280;17439;48.092;11.842;2024-03-29T08:31:00;93943.25;;;11.36;72.93
30682;BME280;17439;48.092;11.842;2024-03-29T08:33:26;93939.72;;;11.51;78.65
30682;BME280;17439;48.092;11.842;2024-03-29T08:35:52;93932.25;;;11.64;78.27
30682;BME280;17439;48.092;11.842;2024-03-29T08:38:18;93936.78;;;11.76;78.36
30682;BME280;17439;48.092;11.842;2024-03-29T08:40:44;93923.09;;;11.88;78.42
30682;BME280;17439;48.092;11.842;2024-03-29T08:43:09;93924.19;;;12.03;78.71
30682;BME280;17439;48.092;11.842;2024-03-29T08:45:35;93934.09;;;12.15;78.00
30682;BME280;17439;48.092;11.842;2024-03-29T08:48:01;93925.47;;;12.29;78.75
30682;BME280;17439;48.092;11.842;2024-03-29T08:50:26;93921.00;;;12.40;77.75
30682;BME280;17439;48.092;11.842;2024-03-29T08:52:52;93924.81;;;12.55;78.69
30682;BME280;17439;48.092;11.842;2024-03-29T08:55:17;93928.56;;;12.70;78.63
30682;BME280;17439;48.092;11.842;2024-03-29T08:57:43;93913.63;;;12.83;79.20
30682;BME280;17439;48.092;11.842;2024-03-29T09:00:09;93927.56;;;13.01;79.23
30682;BME280;17439;48.092;11.842;2024-03-29T09:02:35;93930.91;;;13.18;78.89
30682;BME280;17439;48.092;11.842;2024-03-29T09:05:01;93932.03;;;13.36;78.81
30682;BME280;17439;48.092;11.842;2024-03-29T09:07:26;93924.91;;;13.55;79.32
30682;BME280;17439;48.092;11.842;2024-03-29T09:09:52;93920.13;;;13.75;79.25
30682;BME280;17439;48.092;11.842;2024-03-29T09:12:17;93920.38;;;13.93;78.85
30682;BME280;17439;48.092;11.842;2024-03-29T09:14:45;93917.94;;;14.14;78.33
30682;BME280;17439;48.092;11.842;2024-03-29T09:17:10;93922.00;;;14.31;78.33
30682;BME280;17439;48.092;11.842;2024-03-29T09:19:36;93931.97;;;14.50;78.36
30682;BME280;17439;48.092;11.842;2024-03-29T09:22:01;93926.38;;;14.70;77.64
30682;BME280;17439;48.092;11.842;2024-03-29T09:24:27;93912.88;;;14.84;76.19
30682;BME280;17439;48.092;11.842;2024-03-29T09:26:53;93907.19;;;15.00;77.09
30682;BME280;17439;48.092;11.842;2024-03-29T09:29:18;93906.91;;;15.16;76.92
30682;BME280;17439;48.092;11.842;2024-03-29T09:31:44;93911.31;;;15.32;75.18
30682;BME280;17439;48.092;11.842;2024-03-29T09:34:09;93918.47;;;15.47;75.42
30682;BME280;17439;48.092;11.842;2024-03-29T09:36:35;93920.13;;;15.63;76.36
30682;BME280;17439;48.092;11.842;2024-03-29T09:39:01;93921.84;;;15.78;76.65
30682;BME280;17439;48.092;11.842;2024-03-29T09:41:27;93919.56;;;15.94;74.55
30682;BME280;17439;48.092;11.842;2024-03-29T09:43:53;93920.47;;;16.13;76.23
30682;BME280;17439;48.092;11.842;2024-03-29T09:46:19;93908.41;;;16.28;75.16
30682;BME280;17439;48.092;11.842;2024-03-29T09:48:45;93908.06;;;16.48;74.38
30682;BME280;17439;48.092;11.842;2024-03-29T09:51:12;93908.13;;;16.62;74.46
30682;BME280;17439;48.092;11.842;2024-03-29T09:53:38;93905.81;;;16.79;73.38
30682;BME280;17439;48.092;11.842;2024-03-29T09:56:04;93903.53;;;16.95;73.27
30682;BME280;17439;48.092;11.842;2024-03-29T09:58:31;93896.91;;;17.11;73.90
30682;BME280;17439;48.092;11.842;2024-03-29T10:00:57;93893.38;;;17.25;73.52
30682;BME280;17439;48.092;11.842;2024-03-29T10:03:27;93891.41;;;17.39;60.98
30682;BME280;17439;48.092;11.842;2024-03-29T10:05:53;93892.59;;;17.56;71.94
30682;BME280;17439;48.092;11.842;2024-03-29T10:08:18;93896.88;;;17.68;72.45
30682;BME280;17439;48.092;11.842;2024-03-29T10:10:44;93885.88;;;17.79;72.11
30682;BME280;17439;48.092;11.842;2024-03-29T10:13:10;93879.22;;;17.91;72.00
30682;BME280;17439;48.092;11.842;2024-03-29T10:15:36;93876.06;;;18.03;70.67
30682;BME280;17439;48.092;11.842;2024-03-29T10:18:01;93876.44;;;18.12;71.61
30682;BME280;17439;48.092;11.842;2024-03-29T10:20:27;93888.16;;;18.20;70.59
30682;BME280;17439;48.092;11.842;2024-03-29T10:22:52;93889.69;;;18.28;70.92
30682;BME280;17439;48.092;11.842;2024-03-29T10:25:18;93890.06;;;18.34;70.03
30682;BME280;17439;48.092;11.842;2024-03-29T10:27:44;93885.72;;;18.44;70.50
30682;BME280;17439;48.092;11.842;2024-03-29T10:30:10;93883.69;;;18.52;70.96
30682;BME280;17439;48.092;11.842;2024-03-29T10:32:39;93886.03;;;18.57;63.74
30682;BME280;17439;48.092;11.842;2024-03-29T10:35:05;93889.91;;;18.66;70.30
30682;BME280;17439;48.092;11.842;2024-03-29T10:37:31;93879.66;;;18.74;70.03
30682;BME280;17439;48.092;11.842;2024-03-29T10:39:57;93865.88;;;18.81;69.41
30682;BME280;17439;48.092;11.842;2024-03-29T10:42:23;93873.31;;;18.92;69.18
30682;BME280;17439;48.092;11.842;2024-03-29T10:44:49;93868.16;;;19.01;70.36
30682;BME280;17439;48.092;11.842;2024-03-29T10:47:19;93868.88;;;19.09;64.34
30682;BME280;17439;48.092;11.842;2024-03-29T10:49:49;93862.88;;;19.21;69.48
30682;BME280;17439;48.092;11.842;2024-03-29T10:52:17;93867.09;;;19.36;70.63
30682;BME280;17439;48.092;11.842;2024-03-29T10:54:45;93852.47;;;19.47;63.03
30682;BME280;17439;48.092;11.842;2024-03-29T10:57:16;93848.44;;;19.58;61.56
30682;BME280;17439;48.092;11.842;2024-03-29T11:00:03;93853.00;;;19.72;59.71
30682;BME280;17439;48.092;11.842;2024-03-29T11:02:37;93854.50;;;19.84;70.45
30682;BME280;17439;48.092;11.842;2024-03-29T11:05:07;93859.88;;;19.95;68.19
30682;BME280;17439;48.092;11.842;2024-03-29T11:07:39;93853.47;;;20.05;69.15
30682;BME280;17439;48.092;11.842;2024-03-29T11:10:05;93842.00;;;20.14;68.57
30682;BME280;17439;48.092;11.842;2024-03-29T11:12:45;93832.91;;;20.17;53.92
30682;BME280;17439;48.092;11.842;2024-03-29T11:15:19;93830.81;;;20.28;63.78
30682;BME280;17439;48.092;11.842;2024-03-29T11:17:47;93821.63;;;20.39;68.84
30682;BME280;17439;48.092;11.842;2024-03-29T11:20:14;93820.31;;;20.47;69.48
30682;BME280;17439;48.092;11.842;2024-03-29T11:22:40;93821.38;;;20.57;68.86
30682;BME280;17439;48.092;11.842;2024-03-29T11:25:06;93823.59;;;20.69;67.02
30682;BME280;17439;48.092;11.842;2024-03-29T11:27:32;93824.22;;;20.80;66.04
30682;BME280;17439;48.092;11.842;2024-03-29T11:29:57;93815.44;;;20.89;67.48
30682;BME280;17439;48.092;11.842;2024-03-29T11:32:39;93820.81;;;20.96;61.74
30682;BME280;17439;48.092;11.842;2024-03-29T11:35:05;93816.78;;;21.05;65.72
30682;BME280;17439;48.092;11.842;2024-03-29T11:37:31;93826.09;;;21.11;64.64
30682;BME280;17439;48.092;11.842;2024-03-29T11:40:00;93809.91;;;21.16;60.01
30682;BME280;17439;48.092;11.842;2024-03-29T11:42:36;93815.00;;;21.18;53.65
30682;BME280;17439;48.092;11.842;2024-03-29T11:45:02;93816.78;;;21.28;66.22
30682;BME280;17439;48.092;11.842;2024-03-29T11:47:28;93822.53;;;21.37;66.73
30682;BME280;17439;48.092;11.842;2024-03-29T11:49:58;93826.72;;;21.46;60.03
30682;BME280;17439;48.092;11.842;2024-03-29T11:52:26;93812.34;;;21.58;62.01
30682;BME280;17439;48.092;11.842;2024-03-29T11:54:53;93801.22;;;21.65;63.71
30682;BME280;17439;48.092;11.842;2024-03-29T11:57:19;93804.53;;;21.77;65.00
30682;BME280;17439;48.092;11.842;2024-03-29T11:59:45;93806.31;;;21.87;65.24
30682;BME280;17439;48.092;11.842;2024-03-29T12:02:12;93806.19;;;21.94;59.25
30682;BME280;17439;48.092;11.842;2024-03-29T12:04:42;93810.34;;;22.02;62.37
30682;BME280;17439;48.092;11.842;2024-03-29T12:07:08;93808.66;;;22.08;63.02
30682;BME280;17439;48.092;11.842;2024-03-29T12:09:34;93797.47;;;22.16;63.25
30682;BME280;17439;48.092;11.842;2024-03-29T12:11:59;93797.34;;;22.23;62.56
30682;BME280;17439;48.092;11.842;2024-03-29T12:14:25;93789.28;;;22.32;63.23
30682;BME280;17439;48.092;11.842;2024-03-29T12:16:51;93794.22;;;22.41;63.71
30682;BME280;17439;48.092;11.842;2024-03-29T12:19:23;93783.38;;;22.50;59.72
30682;BME280;17439;48.092;11.842;2024-03-29T12:21:50;93787.09;;;22.60;60.59
30682;BME280;17439;48.092;11.842;2024-03-29T12:24:16;93787.28;;;22.69;62.16
30682;BME280;17439;48.092;11.842;2024-03-29T12:26:42;93796.97;;;22.77;60.33
30682;BME280;17439;48.092;11.842;2024-03-29T12:29:08;93785.34;;;22.86;60.94
30682;BME280;17439;48.092;11.842;2024-03-29T12:31:34;93771.78;;;22.92;60.27
30682;BME280;17439;48.092;11.842;2024-03-29T12:33:59;93774.88;;;22.94;60.40
30682;BME280;17439;48.092;11.842;2024-03-29T12:36:25;93776.34;;;22.98;58.77
30682;BME280;17439;48.092;11.842;2024-03-29T12:38:51;93767.63;;;23.00;57.62
30682;BME280;17439;48.092;11.842;2024-03-29T12:41:16;93766.00;;;23.03;56.71
30682;BME280;17439;48.092;11.842;2024-03-29T12:43:42;93769.94;;;23.01;58.80
30682;BME280;17439;48.092;11.842;2024-03-29T12:46:08;93764.09;;;22.99;58.66
30682;BME280;17439;48.092;11.842;2024-03-29T12:48:35;93761.41;;;22.96;57.66
30682;BME280;17439;48.092;11.842;2024-03-29T12:51:00;93763.06;;;22.93;58.07